sensor_id;sensor_type;location;lat;lon;timestamp;P1;durP1;ratioP1;P2;durP2;ratioP2
53618;SDS011;68717;53.040;18.488;2023-04-05T00:00:07;62.63;;;30.90;;
53618;SDS011;68717;53.040;18.488;2023-04-05T00:00:42;63.42;;;30.80;;
53618;SDS011;68717;53.040;18.488;2023-04-05T00:00:59;66.07;;;30.92;;
53618;SDS011;68717;53.040;18.488;2023-04-05T00:01:12;61.97;;;29.92;;
53618;SDS011;68717;53.040;18.488;2023-04-05T00:01:25;59.17;;;28.60;;
53618;SDS011;68717;53.040;18.488;2023-04-05T00:01:38;57.47;;;27.35;;
53618;SDS011;68717;53.040;18.488;2023-04-05T00:01:50;55.50;;;27.23;;
53618;SDS011;68717;53.040;18.488;2023-04-05T00:02:04;52.67;;;27.02;;
53618;SDS011;68717;53.040;18.488;2023-04-05T00:02:22;52.97;;;26.98;;
53618;SDS011;68717;53.040;18.488;2023-04-05T00:02:35;53.78;;;26.90;;
53618;SDS011;68717;53.040;18.488;2023-04-05T00:02:51;52.75;;;26.55;;
53618;SDS011;68717;53.040;18.488;2023-04-05T00:03:05;53.08;;;26.67;;
53618;SDS011;68717;53.040;18.488;2023-04-05T00:03:21;53.42;;;27.02;;
53618;SDS011;68717;53.040;18.488;2023-04-05T00:03:35;53.88;;;27.05;;
53618;SDS011;68717;53.040;18.488;2023-04-05T00:03:48;56.75;;;27.80;;
53618;SDS011;68717;53.040;18.488;2023-04-05T00:04:00;58.88;;;28.67;;
53618;SDS011;68717;53.040;18.488;2023-04-05T00:04:13;59.88;;;29.30;;
53618;SDS011;68717;53.040;18.488;2023-04-05T00:04:32;63.10;;;31.08;;
53618;SDS011;68717;53.040;18.488;2023-04-05T00:04:46;64.72;;;31.70;;
53618;SDS011;68717;53.040;18.488;2023-04-05T00:05:03;64.68;;;30.50;;
53618;SDS011;68717;53.040;18.488;2023-04-05T00:05:16;63.30;;;30.17;;
53618;SDS011;68717;53.040;18.488;2023-04-05T00:05:40;58.05;;;29.27;;
53618;SDS011;68717;53.040;18.488;2023-04-05T00:05:53;57.70;;;28.85;;
53618;SDS011;68717;53.040;18.488;2023-04-05T00:06:06;57.42;;;28.65;;
53618;SDS011;68717;53.040;18.488;2023-04-05T00:06:19;56.95;;;28.48;;
53618;SDS011;68717;53.040;18.488;2023-04-05T00:06:33;55.67;;;28.25;;
53618;SDS011;68717;53.040;18.488;2023-04-05T00:06:46;56.70;;;28.35;;
53618;SDS011;68717;53.040;18.488;2023-04-05T00:07:01;57.97;;;28.55;;
53618;SDS011;68717;53.040;18.488;2023-04-05T00:07:20;57.97;;;28.50;;
53618;SDS011;68717;53.040;18.488;2023-04-05T00:07:33;58.30;;;28.95;;
53618;SDS011;68717;53.040;18.488;2023-04-05T00:07:47;59.22;;;30.20;;
53618;SDS011;68717;53.040;18.488;2023-04-05T00:08:05;58.85;;;29.90;;
53618;SDS011;68717;53.040;18.488;2023-04-05T00:08:24;58.15;;;29.02;;
53618;SDS011;68717;53.040;18.488;2023-04-05T00:08:39;58.25;;;29.35;;
53618;SDS011;68717;53.040;18.488;2023-04-05T00:08:52;60.08;;;29.52;;
53618;SDS011;68717;53.040;18.488;2023-04-05T00:09:06;58.28;;;29.50;;
53618;SDS011;68717;53.040;18.488;2023-04-05T00:09:20;56.13;;;29.50;;
53618;SDS011;68717;53.040;18.488;2023-04-05T00:09:33;58.13;;;29.33;;
53618;SDS011;68717;53.040;18.488;2023-04-05T00:09:46;59.88;;;29.70;;
53618;SDS011;68717;53.040;18.488;2023-04-05T00:09:59;59.90;;;29.50;;
53618;SDS011;68717;53.040;18.488;2023-04-05T00:10:12;61.95;;;29.23;;
53618;SDS011;68717;53.040;18.488;2023-04-05T00:10:25;59.63;;;28.38;;
53618;SDS011;68717;53.040;18.488;2023-04-05T00:10:37;56.66;;;28.72;;
53618;SDS011;68717;53.040;18.488;2023-04-05T00:10:52;58.55;;;29.27;;
53618;SDS011;68717;53.040;18.488;2023-04-05T00:11:05;62.28;;;29.95;;
53618;SDS011;68717;53.040;18.488;2023-04-05T00:11:17;62.33;;;29.77;;
53618;SDS011;68717;53.040;18.488;2023-04-05T00:11:31;61.17;;;29.60;;
53618;SDS011;68717;53.040;18.488;2023-04-05T00:11:44;59.22;;;29.35;;
53618;SDS011;68717;53.040;18.488;2023-04-05T00:11:58;61.35;;;30.15;;
53618;SDS011;68717;53.040;18.488;2023-04-05T00:12:12;60.03;;;30.23;;
53618;SDS011;68717;53.040;18.488;2023-04-05T00:12:24;58.33;;;29.83;;
53618;SDS011;68717;53.040;18.488;2023-04-05T00:12:37;61.63;;;30.35;;
53618;SDS011;68717;53.040;18.488;2023-04-05T00:12:50;62.72;;;30.33;;
53618;SDS011;68717;53.040;18.488;2023-04-05T00:13:03;65.00;;;30.27;;
53618;SDS011;68717;53.040;18.488;2023-04-05T00:13:16;64.50;;;30.65;;
53618;SDS011;68717;53.040;18.488;2023-04-05T00:13:29;64.60;;;31.13;;
53618;SDS011;68717;53.040;18.488;2023-04-05T00:13:41;63.50;;;29.95;;
53618;SDS011;68717;53.040;18.488;2023-04-05T00:13:55;61.80;;;29.65;;
53618;SDS011;68717;53.040;18.488;2023-04-05T00:14:08;60.05;;;30.30;;
53618;SDS011;68717;53.040;18.488;2023-04-05T00:14:20;60.65;;;29.73;;
53618;SDS011;68717;53.040;18.488;2023-04-05T00:14:33;60.28;;;29.55;;
53618;SDS011;68717;53.040;18.488;2023-04-05T00:14:46;58.15;;;29.52;;
53618;SDS011;68717;53.040;18.488;2023-04-05T00:14:59;56.03;;;29.40;;
53618;SDS011;68717;53.040;18.488;2023-04-05T00:15:12;56.17;;;29.42;;
53618;SDS011;68717;53.040;18.488;2023-04-05T00:15:25;57.05;;;29.25;;
53618;SDS011;68717;53.040;18.488;2023-04-05T00:15:38;57.38;;;29.23;;
53618;SDS011;68717;53.040;18.488;2023-04-05T00:15:52;59.55;;;29.52;;
53618;SDS011;68717;53.040;18.488;2023-04-05T00:16:05;57.53;;;28.90;;
53618;SDS011;68717;53.040;18.488;2023-04-05T00:16:19;56.22;;;29.17;;
53618;SDS011;68717;53.040;18.488;2023-04-05T00:16:33;58.65;;;30.52;;
53618;SDS011;68717;53.040;18.488;2023-04-05T00:16:47;59.30;;;30.30;;
53618;SDS011;68717;53.040;18.488;2023-04-05T00:17:00;58.63;;;29.70;;
53618;SDS011;68717;53.040;18.488;2023-04-05T00:17:13;60.65;;;30.48;;
53618;SDS011;68717;53.040;18.488;2023-04-05T00:17:26;62.75;;;31.58;;
53618;SDS011;68717;53.040;18.488;2023-04-05T00:17:40;62.63;;;31.35;;
53618;SDS011;68717;53.040;18.488;2023-04-05T00:17:54;60.78;;;30.55;;
53618;SDS011;68717;53.040;18.488;2023-04-05T00:18:07;60.83;;;30.50;;
53618;SDS011;68717;53.040;18.488;2023-04-05T00:18:26;59.10;;;30.50;;
53618;SDS011;68717;53.040;18.488;2023-04-05T00:18:39;56.65;;;29.77;;
53618;SDS011;68717;53.040;18.488;2023-04-05T00:18:57;57.65;;;30.13;;
53618;SDS011;68717;53.040;18.488;2023-04-05T00:19:11;61.35;;;31.00;;
53618;SDS011;68717;53.040;18.488;2023-04-05T00:19:24;62.20;;;31.10;;
53618;SDS011;68717;53.040;18.488;2023-04-05T00:19:37;58.40;;;30.42;;
53618;SDS011;68717;53.040;18.488;2023-04-05T00:19:50;55.60;;;29.90;;
53618;SDS011;68717;53.040;18.488;2023-04-05T00:20:08;57.10;;;30.02;;
53618;SDS011;68717;53.040;18.488;2023-04-05T00:20:22;58.42;;;29.98;;
53618;SDS011;68717;53.040;18.488;2023-04-05T00:20:34;56.90;;;29.35;;
53618;SDS011;68717;53.040;18.488;2023-04-05T00:20:48;57.85;;;30.08;;
53618;SDS011;68717;53.040;18.488;2023-04-05T00:21:03;59.55;;;31.02;;
53618;SDS011;68717;53.040;18.488;2023-04-05T00:21:16;59.15;;;31.23;;
53618;SDS011;68717;53.040;18.488;2023-04-05T00:21:32;57.80;;;31.05;;
53618;SDS011;68717;53.040;18.488;2023-04-05T00:21:45;58.80;;;30.65;;
53618;SDS011;68717;53.040;18.488;2023-04-05T00:21:58;61.17;;;30.60;;
53618;SDS011;68717;53.040;18.488;2023-04-05T00:22:11;64.57;;;30.88;;
53618;SDS011;68717;53.040;18.488;2023-04-05T00:22:26;63.58;;;30.83;;
53618;SDS011;68717;53.040;18.488;2023-04-05T00:22:42;57.80;;;30.05;;
53618;SDS011;68717;53.040;18.488;2023-04-05T00:22:56;58.38;;;30.27;;
53618;SDS011;68717;53.040;18.488;2023-04-05T00:23:08;59.63;;;30.50;;
53618;SDS011;68717;53.040;18.488;2023-04-05T00:23:21;59.67;;;30.67;;
53618;SDS011;68717;53.040;18.488;2023-04-05T00:23:36;59.90;;;31.13;;
53618;SDS011;68717;53.040;18.488;2023-04-05T00:23:50;59.60;;;30.90;;
53618;SDS011;68717;53.040;18.488;2023-04-05T00:24:04;58.83;;;31.33;;
53618;SDS011;68717;53.040;18.488;2023-04-05T00:24:18;58.47;;;30.98;;
53618;SDS011;68717;53.040;18.488;2023-04-05T00:24:31;60.35;;;30.30;;
53618;SDS011;68717;53.040;18.488;2023-04-05T00:24:45;57.33;;;30.15;;
53618;SDS011;68717;53.040;18.488;2023-04-05T00:24:57;56.10;;;29.60;;
53618;SDS011;68717;53.040;18.488;2023-04-05T00:25:10;56.90;;;29.65;;
53618;SDS011;68717;53.040;18.488;2023-04-05T00:25:23;56.90;;;29.77;;
53618;SDS011;68717;53.040;18.488;2023-04-05T00:25:37;59.40;;;30.55;;
53618;SDS011;68717;53.040;18.488;2023-04-05T00:25:50;58.28;;;30.40;;
53618;SDS011;68717;53.040;18.488;2023-04-05T00:26:02;56.92;;;30.10;;
53618;SDS011;68717;53.040;18.488;2023-04-05T00:26:15;56.80;;;30.48;;
53618;SDS011;68717;53.040;18.488;2023-04-05T00:26:28;56.13;;;30.38;;
53618;SDS011;68717;53.040;18.488;2023-04-05T00:26:40;56.70;;;29.88;;
53618;SDS011;68717;53.040;18.488;2023-04-05T00:26:55;55.30;;;29.50;;
53618;SDS011;68717;53.040;18.488;2023-04-05T00:27:08;53.88;;;29.63;;
53618;SDS011;68717;53.040;18.488;2023-04-05T00:27:21;56.03;;;29.83;;
53618;SDS011;68717;53.040;18.488;2023-04-05T00:27:34;55.72;;;29.83;;
53618;SDS011;68717;53.040;18.488;2023-04-05T00:27:47;56.22;;;29.50;;
53618;SDS011;68717;53.040;18.488;2023-04-05T00:27:59;59.47;;;29.75;;
53618;SDS011;68717;53.040;18.488;2023-04-05T00:28:12;59.65;;;29.60;;
53618;SDS011;68717;53.040;18.488;2023-04-05T00:28:25;56.45;;;29.58;;
53618;SDS011;68717;53.040;18.488;2023-04-05T00:28:38;54.83;;;29.45;;
53618;SDS011;68717;53.040;18.488;2023-04-05T00:28:51;55.78;;;29.33;;
53618;SDS011;68717;53.040;18.488;2023-04-05T00:29:04;56.17;;;29.48;;
53618;SDS011;68717;53.040;18.488;2023-04-05T00:29:17;55.00;;;29.40;;
53618;SDS011;68717;53.040;18.488;2023-04-05T00:29:29;54.20;;;28.85;;
53618;SDS011;68717;53.040;18.488;2023-04-05T00:29:42;57.55;;;29.45;;
53618;SDS011;68717;53.040;18.488;2023-04-05T00:29:55;55.13;;;29.17;;
53618;SDS011;68717;53.040;18.488;2023-04-05T00:30:09;55.53;;;29.45;;
53618;SDS011;68717;53.040;18.488;2023-04-05T00:30:22;56.33;;;29.52;;
53618;SDS011;68717;53.040;18.488;2023-04-05T00:30:35;56.22;;;28.88;;
53618;SDS011;68717;53.040;18.488;2023-04-05T00:30:47;56.97;;;29.42;;
53618;SDS011;68717;53.040;18.488;2023-04-05T00:31:00;59.53;;;30.10;;
53618;SDS011;68717;53.040;18.488;2023-04-05T00:31:12;56.90;;;29.67;;
53618;SDS011;68717;53.040;18.488;2023-04-05T00:31:25;53.58;;;29.55;;
53618;SDS011;68717;53.040;18.488;2023-04-05T00:31:39;55.85;;;29.58;;
53618;SDS011;68717;53.040;18.488;2023-04-05T00:31:52;58.00;;;29.60;;
53618;SDS011;68717;53.040;18.488;2023-04-05T00:32:05;58.20;;;29.75;;
53618;SDS011;68717;53.040;18.488;2023-04-05T00:32:17;57.64;;;29.06;;
53618;SDS011;68717;53.040;18.488;2023-04-05T00:32:30;55.50;;;28.60;;
53618;SDS011;68717;53.040;18.488;2023-04-05T00:32:43;55.35;;;28.55;;
53618;SDS011;68717;53.040;18.488;2023-04-05T00:32:59;55.83;;;28.92;;
53618;SDS011;68717;53.040;18.488;2023-04-05T00:33:13;55.20;;;28.40;;
53618;SDS011;68717;53.040;18.488;2023-04-05T00:33:25;55.13;;;28.45;;
53618;SDS011;68717;53.040;18.488;2023-04-05T00:33:38;53.25;;;28.13;;
53618;SDS011;68717;53.040;18.488;2023-04-05T00:33:51;52.67;;;28.23;;
53618;SDS011;68717;53.040;18.488;2023-04-05T00:34:03;56.85;;;28.33;;
53618;SDS011;68717;53.040;18.488;2023-04-05T00:34:20;58.10;;;28.15;;
53618;SDS011;68717;53.040;18.488;2023-04-05T00:34:32;55.78;;;28.60;;
53618;SDS011;68717;53.040;18.488;2023-04-05T00:34:45;55.60;;;28.27;;
53618;SDS011;68717;53.040;18.488;2023-04-05T00:34:58;52.42;;;27.75;;
53618;SDS011;68717;53.040;18.488;2023-04-05T00:35:10;51.88;;;27.83;;
53618;SDS011;68717;53.040;18.488;2023-04-05T00:35:25;54.03;;;28.33;;
53618;SDS011;68717;53.040;18.488;2023-04-05T00:35:38;55.25;;;28.80;;
53618;SDS011;68717;53.040;18.488;2023-04-05T00:35:51;56.33;;;28.83;;
53618;SDS011;68717;53.040;18.488;2023-04-05T00:36:08;57.42;;;28.40;;
53618;SDS011;68717;53.040;18.488;2023-04-05T00:36:22;54.92;;;27.73;;
53618;SDS011;68717;53.040;18.488;2023-04-05T00:36:35;53.65;;;28.10;;
53618;SDS011;68717;53.040;18.488;2023-04-05T00:36:47;55.75;;;28.48;;
53618;SDS011;68717;53.040;18.488;2023-04-05T00:37:00;54.33;;;28.25;;
53618;SDS011;68717;53.040;18.488;2023-04-05T00:37:14;53.05;;;28.10;;
53618;SDS011;68717;53.040;18.488;2023-04-05T00:37:28;54.58;;;28.08;;
53618;SDS011;68717;53.040;18.488;2023-04-05T00:37:41;54.92;;;27.83;;
53618;SDS011;68717;53.040;18.488;2023-04-05T00:37:54;54.63;;;27.83;;
53618;SDS011;68717;53.040;18.488;2023-04-05T00:38:07;54.05;;;28.00;;
53618;SDS011;68717;53.040;18.488;2023-04-05T00:38:20;51.55;;;27.40;;
53618;SDS011;68717;53.040;18.488;2023-04-05T00:38:33;50.78;;;27.05;;
53618;SDS011;68717;53.040;18.488;2023-04-05T00:38:46;56.45;;;27.00;;
53618;SDS011;68717;53.040;18.488;2023-04-05T00:39:00;60.72;;;27.08;;
53618;SDS011;68717;53.040;18.488;2023-04-05T00:39:13;58.90;;;27.15;;
53618;SDS011;68717;53.040;18.488;2023-04-05T00:39:26;57.13;;;27.55;;
53618;SDS011;68717;53.040;18.488;2023-04-05T00:39:38;55.75;;;27.23;;
53618;SDS011;68717;53.040;18.488;2023-04-05T00:39:52;53.78;;;27.67;;
53618;SDS011;68717;53.040;18.488;2023-04-05T00:40:06;55.55;;;27.70;;
53618;SDS011;68717;53.040;18.488;2023-04-05T00:40:20;54.40;;;26.83;;
53618;SDS011;68717;53.040;18.488;2023-04-05T00:40:32;52.83;;;26.92;;
53618;SDS011;68717;53.040;18.488;2023-04-05T00:40:45;54.08;;;27.27;;
53618;SDS011;68717;53.040;18.488;2023-04-05T00:40:58;52.83;;;26.92;;
53618;SDS011;68717;53.040;18.488;2023-04-05T00:41:11;50.42;;;26.52;;
53618;SDS011;68717;53.040;18.488;2023-04-05T00:41:25;49.97;;;26.35;;
53618;SDS011;68717;53.040;18.488;2023-04-05T00:41:38;49.72;;;25.92;;
53618;SDS011;68717;53.040;18.488;2023-04-05T00:41:51;50.13;;;26.17;;
53618;SDS011;68717;53.040;18.488;2023-04-05T00:42:04;51.67;;;26.30;;
53618;SDS011;68717;53.040;18.488;2023-04-05T00:42:17;54.63;;;26.58;;
53618;SDS011;68717;53.040;18.488;2023-04-05T00:42:29;55.25;;;26.73;;
53618;SDS011;68717;53.040;18.488;2023-04-05T00:42:42;52.88;;;26.35;;
53618;SDS011;68717;53.040;18.488;2023-04-05T00:42:56;52.80;;;26.05;;
53618;SDS011;68717;53.040;18.488;2023-04-05T00:43:08;53.35;;;26.33;;
53618;SDS011;68717;53.040;18.488;2023-04-05T00:43:21;50.80;;;25.80;;
53618;SDS011;68717;53.040;18.488;2023-04-05T00:43:34;51.10;;;25.75;;
53618;SDS011;68717;53.040;18.488;2023-04-05T00:43:47;52.42;;;25.95;;
53618;SDS011;68717;53.040;18.488;2023-04-05T00:44:00;51.05;;;25.55;;
53618;SDS011;68717;53.040;18.488;2023-04-05T00:44:14;51.47;;;25.00;;
53618;SDS011;68717;53.040;18.488;2023-04-05T00:44:27;52.33;;;25.13;;
53618;SDS011;68717;53.040;18.488;2023-04-05T00:44:45;50.60;;;25.60;;
53618;SDS011;68717;53.040;18.488;2023-04-05T00:44:58;49.10;;;25.70;;
53618;SDS011;68717;53.040;18.488;2023-04-05T00:45:12;47.38;;;25.40;;
53618;SDS011;68717;53.040;18.488;2023-04-05T00:45:24;47.78;;;25.33;;
53618;SDS011;68717;53.040;18.488;2023-04-05T00:45:38;47.20;;;24.48;;
53618;SDS011;68717;53.040;18.488;2023-04-05T00:45:51;45.70;;;24.13;;
53618;SDS011;68717;53.040;18.488;2023-04-05T00:46:05;50.55;;;25.08;;
53618;SDS011;68717;53.040;18.488;2023-04-05T00:46:19;49.95;;;25.30;;
53618;SDS011;68717;53.040;18.488;2023-04-05T00:46:33;48.65;;;24.83;;
53618;SDS011;68717;53.040;18.488;2023-04-05T00:46:46;50.85;;;24.73;;
53618;SDS011;68717;53.040;18.488;2023-04-05T00:46:59;57.17;;;25.25;;
53618;SDS011;68717;53.040;18.488;2023-04-05T00:47:12;60.20;;;26.58;;
53618;SDS011;68717;53.040;18.488;2023-04-05T00:47:26;60.35;;;26.77;;
53618;SDS011;68717;53.040;18.488;2023-04-05T00:47:39;56.92;;;26.38;;
53618;SDS011;68717;53.040;18.488;2023-04-05T00:47:52;58.63;;;25.83;;
53618;SDS011;68717;53.040;18.488;2023-04-05T00:48:07;66.43;;;26.13;;
53618;SDS011;68717;53.040;18.488;2023-04-05T00:48:19;70.78;;;26.23;;
53618;SDS011;68717;53.040;18.488;2023-04-05T00:48:32;65.15;;;25.20;;
53618;SDS011;68717;53.040;18.488;2023-04-05T00:48:45;56.40;;;24.70;;
53618;SDS011;68717;53.040;18.488;2023-04-05T00:48:59;50.00;;;23.90;;
53618;SDS011;68717;53.040;18.488;2023-04-05T00:49:12;49.20;;;23.73;;
53618;SDS011;68717;53.040;18.488;2023-04-05T00:49:25;49.28;;;24.45;;
53618;SDS011;68717;53.040;18.488;2023-04-05T00:49:39;49.67;;;24.70;;
53618;SDS011;68717;53.040;18.488;2023-04-05T00:49:53;50.55;;;24.63;;
53618;SDS011;68717;53.040;18.488;2023-04-05T00:50:06;48.90;;;24.25;;
53618;SDS011;68717;53.040;18.488;2023-04-05T00:50:20;50.35;;;24.05;;
53618;SDS011;68717;53.040;18.488;2023-04-05T00:50:35;51.22;;;24.15;;
53618;SDS011;68717;53.040;18.488;2023-04-05T00:50:48;49.65;;;23.65;;
53618;SDS011;68717;53.040;18.488;2023-04-05T00:51:01;51.72;;;24.00;;
53618;SDS011;68717;53.040;18.488;2023-04-05T00:51:15;52.78;;;24.63;;
53618;SDS011;68717;53.040;18.488;2023-04-05T00:51:29;52.05;;;24.38;;
53618;SDS011;68717;53.040;18.488;2023-04-05T00:51:42;51.22;;;24.00;;
53618;SDS011;68717;53.040;18.488;2023-04-05T00:51:56;48.40;;;23.67;;
53618;SDS011;68717;53.040;18.488;2023-04-05T00:52:09;46.25;;;23.60;;
53618;SDS011;68717;53.040;18.488;2023-04-05T00:52:24;44.75;;;23.30;;
53618;SDS011;68717;53.040;18.488;2023-04-05T00:52:39;47.95;;;23.63;;
53618;SDS011;68717;53.040;18.488;2023-04-05T00:52:52;51.50;;;24.35;;
53618;SDS011;68717;53.040;18.488;2023-04-05T00:53:05;50.03;;;24.75;;
53618;SDS011;68717;53.040;18.488;2023-04-05T00:53:19;50.13;;;24.92;;
53618;SDS011;68717;53.040;18.488;2023-04-05T00:53:32;49.65;;;24.52;;
53618;SDS011;68717;53.040;18.488;2023-04-05T00:53:45;48.95;;;24.55;;
53618;SDS011;68717;53.040;18.488;2023-04-05T00:54:03;49.75;;;24.08;;
53618;SDS011;68717;53.040;18.488;2023-04-05T00:54:17;51.70;;;24.77;;
53618;SDS011;68717;53.040;18.488;2023-04-05T00:54:30;50.55;;;24.92;;
53618;SDS011;68717;53.040;18.488;2023-04-05T00:54:43;50.00;;;24.52;;
53618;SDS011;68717;53.040;18.488;2023-04-05T00:54:56;50.05;;;24.35;;
53618;SDS011;68717;53.040;18.488;2023-04-05T00:55:09;49.15;;;24.77;;
53618;SDS011;68717;53.040;18.488;2023-04-05T00:55:24;49.65;;;24.70;;
53618;SDS011;68717;53.040;18.488;2023-04-05T00:55:37;49.88;;;24.65;;
53618;SDS011;68717;53.040;18.488;2023-04-05T00:55:50;49.50;;;24.65;;
53618;SDS011;68717;53.040;18.488;2023-04-05T00:56:04;48.70;;;24.65;;
53618;SDS011;68717;53.040;18.488;2023-04-05T00:56:17;49.10;;;24.65;;
53618;SDS011;68717;53.040;18.488;2023-04-05T00:56:32;51.33;;;24.92;;
53618;SDS011;68717;53.040;18.488;2023-04-05T00:56:45;52.90;;;25.05;;
53618;SDS011;68717;53.040;18.488;2023-04-05T00:57:04;50.88;;;25.33;;
53618;SDS011;68717;53.040;18.488;2023-04-05T00:57:18;51.36;;;25.46;;
53618;SDS011;68717;53.040;18.488;2023-04-05T00:57:31;51.63;;;25.33;;
53618;SDS011;68717;53.040;18.488;2023-04-05T00:57:45;48.30;;;25.15;;
53618;SDS011;68717;53.040;18.488;2023-04-05T00:58:01;47.88;;;24.40;;
53618;SDS011;68717;53.040;18.488;2023-04-05T00:58:15;48.78;;;24.27;;
53618;SDS011;68717;53.040;18.488;2023-04-05T00:58:30;49.30;;;25.13;;
53618;SDS011;68717;53.040;18.488;2023-04-05T00:58:44;49.55;;;25.17;;
53618;SDS011;68717;53.040;18.488;2023-04-05T00:58:59;49.35;;;24.75;;
53618;SDS011;68717;53.040;18.488;2023-04-05T00:59:12;50.22;;;24.90;;
53618;SDS011;68717;53.040;18.488;2023-04-05T00:59:25;50.50;;;25.35;;
53618;SDS011;68717;53.040;18.488;2023-04-05T00:59:40;50.92;;;25.17;;
53618;SDS011;68717;53.040;18.488;2023-04-05T00:59:53;49.97;;;24.98;;
53618;SDS011;68717;53.040;18.488;2023-04-05T01:00:06;48.28;;;24.70;;
53618;SDS011;68717;53.040;18.488;2023-04-05T01:00:22;49.42;;;24.13;;
53618;SDS011;68717;53.040;18.488;2023-04-05T01:00:37;49.78;;;24.02;;
53618;SDS011;68717;53.040;18.488;2023-04-05T01:00:53;48.70;;;24.77;;
53618;SDS011;68717;53.040;18.488;2023-04-05T01:01:16;49.50;;;24.70;;
53618;SDS011;68717;53.040;18.488;2023-04-05T01:01:30;50.15;;;24.35;;
53618;SDS011;68717;53.040;18.488;2023-04-05T01:01:49;51.80;;;24.33;;
53618;SDS011;68717;53.040;18.488;2023-04-05T01:02:10;49.75;;;24.40;;
53618;SDS011;68717;53.040;18.488;2023-04-05T01:02:30;48.75;;;24.30;;
53618;SDS011;68717;53.040;18.488;2023-04-05T01:02:47;51.50;;;24.58;;
53618;SDS011;68717;53.040;18.488;2023-04-05T01:03:03;49.53;;;24.38;;
53618;SDS011;68717;53.040;18.488;2023-04-05T01:03:17;47.30;;;24.40;;
53618;SDS011;68717;53.040;18.488;2023-04-05T01:03:33;47.58;;;24.60;;
53618;SDS011;68717;53.040;18.488;2023-04-05T01:03:51;48.20;;;24.25;;
53618;SDS011;68717;53.040;18.488;2023-04-05T01:04:11;48.95;;;24.55;;
53618;SDS011;68717;53.040;18.488;2023-04-05T01:04:25;48.13;;;24.60;;
53618;SDS011;68717;53.040;18.488;2023-04-05T01:04:41;46.63;;;23.85;;
53618;SDS011;68717;53.040;18.488;2023-04-05T01:05:02;47.50;;;23.48;;
53618;SDS011;68717;53.040;18.488;2023-04-05T01:05:22;47.53;;;23.88;;
53618;SDS011;68717;53.040;18.488;2023-04-05T01:05:45;46.50;;;23.00;;
53618;SDS011;68717;53.040;18.488;2023-04-05T01:06:03;45.47;;;22.48;;
53618;SDS011;68717;53.040;18.488;2023-04-05T01:06:35;46.88;;;23.40;;
53618;SDS011;68717;53.040;18.488;2023-04-05T01:07:05;50.13;;;23.63;;
53618;SDS011;68717;53.040;18.488;2023-04-05T01:07:22;49.08;;;23.50;;
53618;SDS011;68717;53.040;18.488;2023-04-05T01:07:44;46.47;;;22.77;;
53618;SDS011;68717;53.040;18.488;2023-04-05T01:08:03;44.78;;;22.48;;
53618;SDS011;68717;53.040;18.488;2023-04-05T01:08:31;45.83;;;22.48;;
53618;SDS011;68717;53.040;18.488;2023-04-05T01:08:51;44.67;;;23.33;;
53618;SDS011;68717;53.040;18.488;2023-04-05T01:09:13;47.17;;;23.40;;
53618;SDS011;68717;53.040;18.488;2023-04-05T01:09:36;42.90;;;22.27;;
53618;SDS011;68717;53.040;18.488;2023-04-05T01:09:57;46.33;;;23.17;;
53618;SDS011;68717;53.040;18.488;2023-04-05T01:10:12;46.90;;;22.90;;
53618;SDS011;68717;53.040;18.488;2023-04-05T01:10:29;45.22;;;22.42;;
53618;SDS011;68717;53.040;18.488;2023-04-05T01:10:47;43.47;;;22.08;;
53618;SDS011;68717;53.040;18.488;2023-04-05T01:11:06;47.28;;;23.23;;
53618;SDS011;68717;53.040;18.488;2023-04-05T01:11:21;48.35;;;23.17;;
53618;SDS011;68717;53.040;18.488;2023-04-05T01:11:36;46.88;;;22.35;;
53618;SDS011;68717;53.040;18.488;2023-04-05T01:11:51;44.55;;;22.17;;
53618;SDS011;68717;53.040;18.488;2023-04-05T01:12:08;43.20;;;22.70;;
53618;SDS011;68717;53.040;18.488;2023-04-05T01:12:26;43.20;;;22.73;;
53618;SDS011;68717;53.040;18.488;2023-04-05T01:12:43;45.83;;;22.00;;
53618;SDS011;68717;53.040;18.488;2023-04-05T01:12:57;44.88;;;21.85;;
53618;SDS011;68717;53.040;18.488;2023-04-05T01:13:10;41.78;;;21.83;;
53618;SDS011;68717;53.040;18.488;2023-04-05T01:13:23;42.75;;;21.75;;
53618;SDS011;68717;53.040;18.488;2023-04-05T01:13:36;42.75;;;21.63;;
53618;SDS011;68717;53.040;18.488;2023-04-05T01:13:49;43.60;;;21.95;;
53618;SDS011;68717;53.040;18.488;2023-04-05T01:14:03;44.78;;;21.52;;
53618;SDS011;68717;53.040;18.488;2023-04-05T01:14:15;44.00;;;21.00;;
53618;SDS011;68717;53.040;18.488;2023-04-05T01:14:28;42.88;;;20.52;;
53618;SDS011;68717;53.040;18.488;2023-04-05T01:14:44;41.38;;;20.73;;
53618;SDS011;68717;53.040;18.488;2023-04-05T01:14:58;39.88;;;20.50;;
53618;SDS011;68717;53.040;18.488;2023-04-05T01:15:12;42.00;;;20.55;;
53618;SDS011;68717;53.040;18.488;2023-04-05T01:15:25;43.22;;;21.00;;
53618;SDS011;68717;53.040;18.488;2023-04-05T01:15:38;41.30;;;21.08;;
53618;SDS011;68717;53.040;18.488;2023-04-05T01:15:52;44.15;;;21.48;;
53618;SDS011;68717;53.040;18.488;2023-04-05T01:16:05;45.55;;;22.10;;
53618;SDS011;68717;53.040;18.488;2023-04-05T01:16:19;42.80;;;21.65;;
53618;SDS011;68717;53.040;18.488;2023-04-05T01:16:32;41.25;;;21.52;;
53618;SDS011;68717;53.040;18.488;2023-04-05T01:16:44;42.72;;;21.83;;
53618;SDS011;68717;53.040;18.488;2023-04-05T01:17:00;41.88;;;21.50;;
53618;SDS011;68717;53.040;18.488;2023-04-05T01:17:14;41.98;;;21.54;;
53618;SDS011;68717;53.040;18.488;2023-04-05T01:17:28;44.20;;;21.58;;
53618;SDS011;68717;53.040;18.488;2023-04-05T01:17:47;46.55;;;21.73;;
53618;SDS011;68717;53.040;18.488;2023-04-05T01:18:00;44.47;;;21.60;;
53618;SDS011;68717;53.040;18.488;2023-04-05T01:18:13;41.88;;;21.02;;
53618;SDS011;68717;53.040;18.488;2023-04-05T01:18:26;40.83;;;20.35;;
53618;SDS011;68717;53.040;18.488;2023-04-05T01:18:42;44.05;;;20.40;;
53618;SDS011;68717;53.040;18.488;2023-04-05T01:18:58;43.00;;;20.90;;
53618;SDS011;68717;53.040;18.488;2023-04-05T01:19:11;44.20;;;21.63;;
53618;SDS011;68717;53.040;18.488;2023-04-05T01:19:25;43.42;;;21.08;;
53618;SDS011;68717;53.040;18.488;2023-04-05T01:19:40;42.40;;;20.67;;
53618;SDS011;68717;53.040;18.488;2023-04-05T01:19:59;40.60;;;20.67;;
53618;SDS011;68717;53.040;18.488;2023-04-05T01:20:21;39.50;;;20.42;;
53618;SDS011;68717;53.040;18.488;2023-04-05T01:20:37;41.10;;;20.42;;
53618;SDS011;68717;53.040;18.488;2023-04-05T01:20:58;41.22;;;20.42;;
53618;SDS011;68717;53.040;18.488;2023-04-05T01:21:48;42.35;;;20.83;;
53618;SDS011;68717;53.040;18.488;2023-04-05T01:23:58;39.28;;;19.95;;
53618;SDS011;68717;53.040;18.488;2023-04-05T01:24:29;41.17;;;20.35;;
53618;SDS011;68717;53.040;18.488;2023-04-05T01:24:52;38.78;;;19.95;;
53618;SDS011;68717;53.040;18.488;2023-04-05T01:25:33;40.63;;;20.35;;
53618;SDS011;68717;53.040;18.488;2023-04-05T01:27:12;41.20;;;19.35;;
53618;SDS011;68717;53.040;18.488;2023-04-05T01:27:36;41.20;;;20.25;;
53618;SDS011;68717;53.040;18.488;2023-04-05T01:28:11;44.13;;;20.75;;
53618;SDS011;68717;53.040;18.488;2023-04-05T01:29:54;40.42;;;19.20;;